sensor_id;sensor_type;location;lat;lon;timestamp;temperature;humidity
7002;DHT22;3541;53.230;10.518;2024-02-04T00:00:44;7.40;99.90
7002;DHT22;3541;53.230;10.518;2024-02-04T00:03:11;7.40;99.90
7002;DHT22;3541;53.230;10.518;2024-02-04T00:05:39;7.30;99.90
7002;DHT22;3541;53.230;10.518;2024-02-04T00:08:06;7.40;99.90
7002;DHT22;3541;53.230;10.518;2024-02-04T00:10:32;7.40;99.90
7002;DHT22;3541;53.230;10.518;2024-02-04T00:12:59;7.40;99.90
7002;DHT22;3541;53.230;10.518;2024-02-04T00:15:26;7.30;99.90
7002;DHT22;3541;53.230;10.518;2024-02-04T00:17:53;7.30;99.90
7002;DHT22;3541;53.230;10.518;2024-02-04T00:20:19;7.30;99.90
7002;DHT22;3541;53.230;10.518;2024-02-04T00:22:48;7.30;99.90
7002;DHT22;3541;53.230;10.518;2024-02-04T00:25:15;7.30;99.90
7002;DHT22;3541;53.230;10.518;2024-02-04T00:27:44;7.20;99.90
7002;DHT22;3541;53.230;10.518;2024-02-04T00:30:11;7.20;99.90
7002;DHT22;3541;53.230;10.518;2024-02-04T00:32:38;7.20;99.90
7002;DHT22;3541;53.230;10.518;2024-02-04T00:35:05;7.20;99.90
7002;DHT22;3541;53.230;10.518;2024-02-04T00:37:31;7.20;99.90
7002;DHT22;3541;53.230;10.518;2024-02-04T00:39:59;7.20;99.90
7002;DHT22;3541;53.230;10.518;2024-02-04T00:42:26;7.10;99.90
7002;DHT22;3541;53.230;10.518;2024-02-04T00:44:52;7.20;99.90
7002;DHT22;3541;53.230;10.518;2024-02-04T00:47:19;7.20;99.90
7002;DHT22;3541;53.230;10.518;2024-02-04T00:49:46;7.20;99.90
7002;DHT22;3541;53.230;10.518;2024-02-04T00:52:12;7.10;99.90
7002;DHT22;3541;53.230;10.518;2024-02-04T00:54:39;7.10;99.90
7002;DHT22;3541;53.230;10.518;2024-02-04T00:57:06;7.10;99.90
7002;DHT22;3541;53.230;10.518;2024-02-04T00:59:33;7.10;99.90
7002;DHT22;3541;53.230;10.518;2024-02-04T01:02:00;7.00;99.90
7002;DHT22;3541;53.230;10.518;2024-02-04T01:04:26;7.00;99.90
7002;DHT22;3541;53.230;10.518;2024-02-04T01:06:53;7.10;99.90
7002;DHT22;3541;53.230;10.518;2024-02-04T01:09:19;7.00;99.90
7002;DHT22;3541;53.230;10.518;2024-02-04T01:11:46;7.10;99.90
7002;DHT22;3541;53.230;10.518;2024-02-04T01:14:14;7.00;99.90
7002;DHT22;3541;53.230;10.518;2024-02-04T01:16:40;7.00;99.90
7002;DHT22;3541;53.230;10.518;2024-02-04T01:19:07;7.00;99.90
7002;DHT22;3541;53.230;10.518;2024-02-04T01:21:33;7.00;99.90
7002;DHT22;3541;53.230;10.518;2024-02-04T01:24:00;7.10;99.90
7002;DHT22;3541;53.230;10.518;2024-02-04T01:26:27;7.00;99.90
7002;DHT22;3541;53.230;10.518;2024-02-04T01:28:57;7.00;99.90
7002;DHT22;3541;53.230;10.518;2024-02-04T01:31:25;7.00;99.90
7002;DHT22;3541;53.230;10.518;2024-02-04T01:33:52;7.00;99.90
7002;DHT22;3541;53.230;10.518;2024-02-04T01:36:18;7.00;99.90
7002;DHT22;3541;53.230;10.518;2024-02-04T01:38:45;7.10;99.90
7002;DHT22;3541;53.230;10.518;2024-02-04T01:41:11;7.00;99.90
7002;DHT22;3541;53.230;10.518;2024-02-04T01:43:38;7.00;99.90
7002;DHT22;3541;53.230;10.518;2024-02-04T01:46:04;7.00;99.90
7002;DHT22;3541;53.230;10.518;2024-02-04T01:48:33;7.00;99.90
7002;DHT22;3541;53.230;10.518;2024-02-04T01:51:00;7.00;99.90
7002;DHT22;3541;53.230;10.518;2024-02-04T01:53:28;7.10;99.90
7002;DHT22;3541;53.230;10.518;2024-02-04T01:55:56;7.20;99.90
7002;DHT22;3541;53.230;10.518;2024-02-04T01:58:23;7.10;99.90
7002;DHT22;3541;53.230;10.518;2024-02-04T02:00:50;7.20;99.90
7002;DHT22;3541;53.230;10.518;2024-02-04T02:03:16;7.10;99.90
7002;DHT22;3541;53.230;10.518;2024-02-04T02:05:45;7.10;99.90
7002;DHT22;3541;53.230;10.518;2024-02-04T02:08:12;7.20;99.90
7002;DHT22;3541;53.230;10.518;2024-02-04T02:10:39;7.20;99.90
7002;DHT22;3541;53.230;10.518;2024-02-04T02:13:14;7.30;99.90
7002;DHT22;3541;53.230;10.518;2024-02-04T02:15:45;7.20;99.90
7002;DHT22;3541;53.230;10.518;2024-02-04T02:18:16;7.20;99.90
7002;DHT22;3541;53.230;10.518;2024-02-04T02:21:01;7.20;99.90
7002;DHT22;3541;53.230;10.518;2024-02-04T02:23:31;7.20;99.90
7002;DHT22;3541;53.230;10.518;2024-02-04T02:26:02;7.20;99.90
7002;DHT22;3541;53.230;10.518;2024-02-04T02:28:30;7.20;99.90
7002;DHT22;3541;53.230;10.518;2024-02-04T02:30:57;7.20;99.90
7002;DHT22;3541;53.230;10.518;2024-02-04T02:33:24;7.20;99.90
7002;DHT22;3541;53.230;10.518;2024-02-04T02:35:55;7.20;99.90
7002;DHT22;3541;53.230;10.518;2024-02-04T02:38:26;7.20;99.90
7002;DHT22;3541;53.230;10.518;2024-02-04T02:40:56;7.30;99.90
7002;DHT22;3541;53.230;10.518;2024-02-04T02:43:26;7.20;99.90
7002;DHT22;3541;53.230;10.518;2024-02-04T02:45:53;7.20;99.90
7002;DHT22;3541;53.230;10.518;2024-02-04T02:48:21;7.30;99.90
7002;DHT22;3541;53.230;10.518;2024-02-04T02:50:48;7.20;99.90
7002;DHT22;3541;53.230;10.518;2024-02-04T02:53:14;7.20;99.90
7002;DHT22;3541;53.230;10.518;2024-02-04T02:55:41;7.20;99.90
7002;DHT22;3541;53.230;10.518;2024-02-04T02:58:08;7.20;99.90
7002;DHT22;3541;53.230;10.518;2024-02-04T03:00:35;7.30;99.90
7002;DHT22;3541;53.230;10.518;2024-02-04T03:03:02;7.20;99.90
7002;DHT22;3541;53.230;10.518;2024-02-04T03:05:29;7.30;99.90
7002;DHT22;3541;53.230;10.518;2024-02-04T03:07:56;7.30;99.90
7002;DHT22;3541;53.230;10.518;2024-02-04T03:10:22;7.30;99.90
7002;DHT22;3541;53.230;10.518;2024-02-04T03:12:49;7.30;99.90
7002;DHT22;3541;53.230;10.518;2024-02-04T03:15:15;7.30;99.90
7002;DHT22;3541;53.230;10.518;2024-02-04T03:17:44;7.30;99.90
7002;DHT22;3541;53.230;10.518;2024-02-04T03:20:11;7.20;99.90
7002;DHT22;3541;53.230;10.518;2024-02-04T03:22:37;7.20;99.90
7002;DHT22;3541;53.230;10.518;2024-02-04T03:25:05;7.10;99.90
7002;DHT22;3541;53.230;10.518;2024-02-04T03:27:31;7.10;99.90
7002;DHT22;3541;53.230;10.518;2024-02-04T03:29:58;7.10;99.90
7002;DHT22;3541;53.230;10.518;2024-02-04T03:32:25;7.10;99.90
7002;DHT22;3541;53.230;10.518;2024-02-04T03:34:52;7.10;99.90
7002;DHT22;3541;53.230;10.518;2024-02-04T03:37:19;7.10;99.90
7002;DHT22;3541;53.230;10.518;2024-02-04T03:39:45;7.10;99.90
7002;DHT22;3541;53.230;10.518;2024-02-04T03:42:12;7.10;99.90
7002;DHT22;3541;53.230;10.518;2024-02-04T03:44:39;7.00;99.90
7002;DHT22;3541;53.230;10.518;2024-02-04T03:47:05;7.00;99.90
7002;DHT22;3541;53.230;10.518;2024-02-04T03:49:32;7.10;99.90
7002;DHT22;3541;53.230;10.518;2024-02-04T03:52:00;7.00;99.90
7002;DHT22;3541;53.230;10.518;2024-02-04T03:54:26;7.00;99.90
7002;DHT22;3541;53.230;10.518;2024-02-04T03:56:53;6.90;99.90
7002;DHT22;3541;53.230;10.518;2024-02-04T03:59:19;6.90;99.90
7002;DHT22;3541;53.230;10.518;2024-02-04T04:01:47;7.00;99.90
7002;DHT22;3541;53.230;10.518;2024-02-04T04:04:14;7.00;99.90
7002;DHT22;3541;53.230;10.518;2024-02-04T04:06:42;7.00;99.90
7002;DHT22;3541;53.230;10.518;2024-02-04T04:09:09;7.00;99.90
7002;DHT22;3541;53.230;10.518;2024-02-04T04:11:36;7.00;99.90
7002;DHT22;3541;53.230;10.518;2024-02-04T04:14:03;6.90;99.90
7002;DHT22;3541;53.230;10.518;2024-02-04T04:16:29;6.80;99.90
7002;DHT22;3541;53.230;10.518;2024-02-04T04:18:56;6.80;99.90
7002;DHT22;3541;53.230;10.518;2024-02-04T04:21:23;6.80;99.90
7002;DHT22;3541;53.230;10.518;2024-02-04T04:23:50;6.90;99.90
7002;DHT22;3541;53.230;10.518;2024-02-04T04:26:18;7.00;99.90
7002;DHT22;3541;53.230;10.518;2024-02-04T04:28:45;6.90;99.90
7002;DHT22;3541;53.230;10.518;2024-02-04T04:31:11;6.90;99.90
7002;DHT22;3541;53.230;10.518;2024-02-04T04:33:38;6.90;99.90
7002;DHT22;3541;53.230;10.518;2024-02-04T04:36:05;6.90;99.90
7002;DHT22;3541;53.230;10.518;2024-02-04T04:38:32;6.90;99.90
7002;DHT22;3541;53.230;10.518;2024-02-04T04:40:58;6.80;99.90
7002;DHT22;3541;53.230;10.518;2024-02-04T04:43:26;6.80;99.90
7002;DHT22;3541;53.230;10.518;2024-02-04T04:45:53;6.80;99.90
7002;DHT22;3541;53.230;10.518;2024-02-04T04:48:19;6.80;99.90
7002;DHT22;3541;53.230;10.518;2024-02-04T04:50:46;6.80;99.90
7002;DHT22;3541;53.230;10.518;2024-02-04T04:53:12;6.80;99.90
7002;DHT22;3541;53.230;10.518;2024-02-04T04:55:39;6.80;99.90
7002;DHT22;3541;53.230;10.518;2024-02-04T04:58:06;6.70;99.90
7002;DHT22;3541;53.230;10.518;2024-02-04T05:00:33;6.70;99.90
7002;DHT22;3541;53.230;10.518;2024-02-04T05:03:00;6.70;99.90
7002;DHT22;3541;53.230;10.518;2024-02-04T05:05:27;6.80;99.90
7002;DHT22;3541;53.230;10.518;2024-02-04T05:07:53;6.80;99.90
7002;DHT22;3541;53.230;10.518;2024-02-04T05:10:20;6.70;99.90
7002;DHT22;3541;53.230;10.518;2024-02-04T05:12:46;6.70;99.90
7002;DHT22;3541;53.230;10.518;2024-02-04T05:15:13;6.80;99.90
7002;DHT22;3541;53.230;10.518;2024-02-04T05:17:41;6.70;99.90
7002;DHT22;3541;53.230;10.518;2024-02-04T05:20:08;6.60;99.90
7002;DHT22;3541;53.230;10.518;2024-02-04T05:22:35;6.70;99.90
7002;DHT22;3541;53.230;10.518;2024-02-04T05:25:02;6.70;99.90
7002;DHT22;3541;53.230;10.518;2024-02-04T05:27:30;6.70;99.90
7002;DHT22;3541;53.230;10.518;2024-02-04T05:29:56;6.70;99.90
7002;DHT22;3541;53.230;10.518;2024-02-04T05:32:23;6.60;99.90
7002;DHT22;3541;53.230;10.518;2024-02-04T05:34:51;6.70;99.90
7002;DHT22;3541;53.230;10.518;2024-02-04T05:37:17;6.60;99.90
7002;DHT22;3541;53.230;10.518;2024-02-04T05:39:44;6.70;99.90
7002;DHT22;3541;53.230;10.518;2024-02-04T05:42:11;6.70;99.90
7002;DHT22;3541;53.230;10.518;2024-02-04T05:44:37;6.70;99.90
7002;DHT22;3541;53.230;10.518;2024-02-04T05:47:04;6.70;99.90
7002;DHT22;3541;53.230;10.518;2024-02-04T05:49:31;6.80;99.90
7002;DHT22;3541;53.230;10.518;2024-02-04T05:51:59;6.70;99.90
7002;DHT22;3541;53.230;10.518;2024-02-04T05:54:25;6.70;99.90
7002;DHT22;3541;53.230;10.518;2024-02-04T05:56:52;6.70;99.90
7002;DHT22;3541;53.230;10.518;2024-02-04T05:59:18;6.60;99.90
7002;DHT22;3541;53.230;10.518;2024-02-04T06:01:45;6.70;99.90
7002;DHT22;3541;53.230;10.518;2024-02-04T06:04:11;6.60;99.90
7002;DHT22;3541;53.230;10.518;2024-02-04T06:06:38;6.70;99.90
7002;DHT22;3541;53.230;10.518;2024-02-04T06:09:06;6.70;99.90
7002;DHT22;3541;53.230;10.518;2024-02-04T06:11:33;6.60;99.90
7002;DHT22;3541;53.230;10.518;2024-02-04T06:14:00;6.60;99.90
7002;DHT22;3541;53.230;10.518;2024-02-04T06:16:27;6.60;99.90
7002;DHT22;3541;53.230;10.518;2024-02-04T06:18:53;6.60;99.90
7002;DHT22;3541;53.230;10.518;2024-02-04T06:21:20;6.50;99.90
7002;DHT22;3541;53.230;10.518;2024-02-04T06:23:47;6.60;99.90
7002;DHT22;3541;53.230;10.518;2024-02-04T06:26:15;6.60;99.90
7002;DHT22;3541;53.230;10.518;2024-02-04T06:28:41;6.60;99.90
7002;DHT22;3541;53.230;10.518;2024-02-04T06:31:11;6.60;99.90
7002;DHT22;3541;53.230;10.518;2024-02-04T06:33:38;6.60;99.90
7002;DHT22;3541;53.230;10.518;2024-02-04T06:36:08;6.70;99.90
7002;DHT22;3541;53.230;10.518;2024-02-04T06:38:35;6.70;99.90
7002;DHT22;3541;53.230;10.518;2024-02-04T06:41:02;6.70;99.90
7002;DHT22;3541;53.230;10.518;2024-02-04T06:43:30;6.70;99.90
7002;DHT22;3541;53.230;10.518;2024-02-04T06:45:56;6.60;99.90
7002;DHT22;3541;53.230;10.518;2024-02-04T06:48:23;6.70;99.90
7002;DHT22;3541;53.230;10.518;2024-02-04T06:50:49;6.70;99.90
7002;DHT22;3541;53.230;10.518;2024-02-04T06:53:16;6.70;99.90
7002;DHT22;3541;53.230;10.518;2024-02-04T06:55:42;6.80;99.90
7002;DHT22;3541;53.230;10.518;2024-02-04T06:58:09;6.70;99.90
7002;DHT22;3541;53.230;10.518;2024-02-04T07:00:37;6.70;99.90
7002;DHT22;3541;53.230;10.518;2024-02-04T07:03:04;6.70;99.90
7002;DHT22;3541;53.230;10.518;2024-02-04T07:05:30;6.70;99.90
7002;DHT22;3541;53.230;10.518;2024-02-04T07:07:59;6.70;99.90
7002;DHT22;3541;53.230;10.518;2024-02-04T07:10:25;6.60;99.90
7002;DHT22;3541;53.230;10.518;2024-02-04T07:12:52;6.70;99.90
7002;DHT22;3541;53.230;10.518;2024-02-04T07:15:18;6.50;99.90
7002;DHT22;3541;53.230;10.518;2024-02-04T07:17:46;6.60;99.90
7002;DHT22;3541;53.230;10.518;2024-02-04T07:20:13;6.60;99.90
7002;DHT22;3541;53.230;10.518;2024-02-04T07:22:39;6.60;99.90
7002;DHT22;3541;53.230;10.518;2024-02-04T07:25:07;6.60;99.90
7002;DHT22;3541;53.230;10.518;2024-02-04T07:27:33;6.60;99.90
7002;DHT22;3541;53.230;10.518;2024-02-04T07:30:00;6.60;99.90
7002;DHT22;3541;53.230;10.518;2024-02-04T07:32:28;6.50;99.90
7002;DHT22;3541;53.230;10.518;2024-02-04T07:34:56;6.60;99.90
7002;DHT22;3541;53.230;10.518;2024-02-04T07:37:23;6.60;99.90
7002;DHT22;3541;53.230;10.518;2024-02-04T07:39:50;6.60;99.90
7002;DHT22;3541;53.230;10.518;2024-02-04T07:42:16;6.60;99.90
7002;DHT22;3541;53.230;10.518;2024-02-04T07:44:43;6.60;99.90
7002;DHT22;3541;53.230;10.518;2024-02-04T07:47:10;6.60;99.90
7002;DHT22;3541;53.230;10.518;2024-02-04T07:49:36;6.60;99.90
7002;DHT22;3541;53.230;10.518;2024-02-04T07:52:05;6.70;99.90
7002;DHT22;3541;53.230;10.518;2024-02-04T07:54:31;6.50;99.90
7002;DHT22;3541;53.230;10.518;2024-02-04T07:56:59;6.60;99.90
7002;DHT22;3541;53.230;10.518;2024-02-04T07:59:25;6.60;99.90
7002;DHT22;3541;53.230;10.518;2024-02-04T08:01:52;6.70;99.90
7002;DHT22;3541;53.230;10.518;2024-02-04T08:04:18;6.70;99.90
7002;DHT22;3541;53.230;10.518;2024-02-04T08:06:45;6.70;99.90
7002;DHT22;3541;53.230;10.518;2024-02-04T08:09:13;6.70;99.90
7002;DHT22;3541;53.230;10.518;2024-02-04T08:11:40;6.60;99.90
7002;DHT22;3541;53.230;10.518;2024-02-04T08:14:06;6.60;99.90
7002;DHT22;3541;53.230;10.518;2024-02-04T08:16:33;6.60;99.90
7002;DHT22;3541;53.230;10.518;2024-02-04T08:18:59;6.60;99.90
7002;DHT22;3541;53.230;10.518;2024-02-04T08:21:26;6.70;99.90
7002;DHT22;3541;53.230;10.518;2024-02-04T08:23:52;6.70;99.90
7002;DHT22;3541;53.230;10.518;2024-02-04T08:26:20;6.60;99.90
7002;DHT22;3541;53.230;10.518;2024-02-04T08:28:47;6.70;99.90
7002;DHT22;3541;53.230;10.518;2024-02-04T08:31:13;6.70;99.90
7002;DHT22;3541;53.230;10.518;2024-02-04T08:33:40;6.80;99.90
7002;DHT22;3541;53.230;10.518;2024-02-04T08:36:07;6.80;99.90
7002;DHT22;3541;53.230;10.518;2024-02-04T08:38:35;6.80;99.90
7002;DHT22;3541;53.230;10.518;2024-02-04T08:41:02;6.80;99.90
7002;DHT22;3541;53.230;10.518;2024-02-04T08:43:30;6.80;99.90
7002;DHT22;3541;53.230;10.518;2024-02-04T08:45:56;6.90;99.90
7002;DHT22;3541;53.230;10.518;2024-02-04T08:48:23;6.80;99.90
7002;DHT22;3541;53.230;10.518;2024-02-04T08:50:49;6.80;99.90
7002;DHT22;3541;53.230;10.518;2024-02-04T08:53:16;6.90;99.90
7002;DHT22;3541;53.230;10.518;2024-02-04T08:55:43;6.90;99.90
7002;DHT22;3541;53.230;10.518;2024-02-04T08:58:09;6.90;99.90
7002;DHT22;3541;53.230;10.518;2024-02-04T09:00:37;6.90;99.90
7002;DHT22;3541;53.230;10.518;2024-02-04T09:03:04;6.90;99.90
7002;DHT22;3541;53.230;10.518;2024-02-04T09:05:30;7.00;99.90
7002;DHT22;3541;53.230;10.518;2024-02-04T09:07:57;7.00;99.90
7002;DHT22;3541;53.230;10.518;2024-02-04T09:10:24;7.00;99.90
7002;DHT22;3541;53.230;10.518;2024-02-04T09:12:50;7.00;99.90
7002;DHT22;3541;53.230;10.518;2024-02-04T09:15:17;7.10;99.90
7002;DHT22;3541;53.230;10.518;2024-02-04T09:17:45;7.10;99.90
7002;DHT22;3541;53.230;10.518;2024-02-04T09:20:11;7.10;99.90
7002;DHT22;3541;53.230;10.518;2024-02-04T09:22:38;7.10;99.90
7002;DHT22;3541;53.230;10.518;2024-02-04T09:25:06;7.20;99.90
7002;DHT22;3541;53.230;10.518;2024-02-04T09:27:32;7.20;99.90
7002;DHT22;3541;53.230;10.518;2024-02-04T09:29:59;7.20;99.90
7002;DHT22;3541;53.230;10.518;2024-02-04T09:32:26;7.20;99.90
7002;DHT22;3541;53.230;10.518;2024-02-04T09:34:53;7.20;99.90
7002;DHT22;3541;53.230;10.518;2024-02-04T09:37:20;7.20;99.90
7002;DHT22;3541;53.230;10.518;2024-02-04T09:39:46;7.20;99.90
7002;DHT22;3541;53.230;10.518;2024-02-04T09:42:19;7.30;99.90
7002;DHT22;3541;53.230;10.518;2024-02-04T09:44:47;7.30;99.90
7002;DHT22;3541;53.230;10.518;2024-02-04T09:47:15;7.30;99.90
7002;DHT22;3541;53.230;10.518;2024-02-04T09:49:42;7.30;99.90
7002;DHT22;3541;53.230;10.518;2024-02-04T09:52:10;7.30;99.90
7002;DHT22;3541;53.230;10.518;2024-02-04T09:54:52;7.30;99.90
7002;DHT22;3541;53.230;10.518;2024-02-04T09:57:21;7.30;99.90
7002;DHT22;3541;53.230;10.518;2024-02-04T09:59:48;7.30;99.90
7002;DHT22;3541;53.230;10.518;2024-02-04T10:02:15;7.30;99.90
7002;DHT22;3541;53.230;10.518;2024-02-04T10:04:42;7.30;99.90
7002;DHT22;3541;53.230;10.518;2024-02-04T10:07:10;7.30;99.90
7002;DHT22;3541;53.230;10.518;2024-02-04T10:09:38;7.30;99.90
7002;DHT22;3541;53.230;10.518;2024-02-04T10:12:06;7.30;99.90
7002;DHT22;3541;53.230;10.518;2024-02-04T10:14:33;7.40;99.90
7002;DHT22;3541;53.230;10.518;2024-02-04T10:17:00;7.40;99.90
7002;DHT22;3541;53.230;10.518;2024-02-04T10:19:27;7.40;99.90
7002;DHT22;3541;53.230;10.518;2024-02-04T10:21:59;7.40;99.90
7002;DHT22;3541;53.230;10.518;2024-02-04T10:24:28;7.40;99.90
7002;DHT22;3541;53.230;10.518;2024-02-04T10:26:55;7.40;99.90
7002;DHT22;3541;53.230;10.518;2024-02-04T10:29:22;7.40;99.90
7002;DHT22;3541;53.230;10.518;2024-02-04T10:31:53;7.40;99.90
7002;DHT22;3541;53.230;10.518;2024-02-04T10:34:20;7.40;99.90
7002;DHT22;3541;53.230;10.518;2024-02-04T10:36:46;7.40;99.90
7002;DHT22;3541;53.230;10.518;2024-02-04T10:39:13;7.40;99.90
7002;DHT22;3541;53.230;10.518;2024-02-04T10:41:50;7.50;99.90
7002;DHT22;3541;53.230;10.518;2024-02-04T10:44:20;7.50;99.90
7002;DHT22;3541;53.230;10.518;2024-02-04T10:46:47;7.40;99.90
7002;DHT22;3541;53.230;10.518;2024-02-04T10:49:15;7.50;99.90
7002;DHT22;3541;53.230;10.518;2024-02-04T10:51:42;7.50;99.90
7002;DHT22;3541;53.230;10.518;2024-02-04T10:54:11;7.50;99.90
7002;DHT22;3541;53.230;10.518;2024-02-04T10:56:43;7.50;99.90
7002;DHT22;3541;53.230;10.518;2024-02-04T10:59:10;7.60;99.90
7002;DHT22;3541;53.230;10.518;2024-02-04T11:01:38;7.60;99.90
7002;DHT22;3541;53.230;10.518;2024-02-04T11:04:08;7.60;99.90
7002;DHT22;3541;53.230;10.518;2024-02-04T11:06:35;7.60;99.90
7002;DHT22;3541;53.230;10.518;2024-02-04T11:09:03;7.60;99.90
7002;DHT22;3541;53.230;10.518;2024-02-04T11:11:31;7.60;99.90
7002;DHT22;3541;53.230;10.518;2024-02-04T11:14:02;7.60;99.90
7002;DHT22;3541;53.230;10.518;2024-02-04T11:19:26;7.60;99.90
7002;DHT22;3541;53.230;10.518;2024-02-04T11:25:12;7.70;99.90
7002;DHT22;3541;53.230;10.518;2024-02-04T11:27:42;7.70;99.90
7002;DHT22;3541;53.230;10.518;2024-02-04T11:30:11;7.70;99.90
7002;DHT22;3541;53.230;10.518;2024-02-04T11:32:37;7.80;99.90
7002;DHT22;3541;53.230;10.518;2024-02-04T11:35:07;7.80;99.90
7002;DHT22;3541;53.230;10.518;2024-02-04T11:37:37;7.80;99.90
7002;DHT22;3541;53.230;10.518;2024-02-04T11:40:13;7.80;99.90
7002;DHT22;3541;53.230;10.518;2024-02-04T11:42:40;7.80;99.90
7002;DHT22;3541;53.230;10.518;2024-02-04T11:45:07;7.70;99.90
7002;DHT22;3541;53.230;10.518;2024-02-04T11:47:37;7.80;99.90
7002;DHT22;3541;53.230;10.518;2024-02-04T11:50:04;7.80;99.90
7002;DHT22;3541;53.230;10.518;2024-02-04T11:52:31;7.80;99.90
7002;DHT22;3541;53.230;10.518;2024-02-04T11:54:57;7.80;99.90
7002;DHT22;3541;53.230;10.518;2024-02-04T11:57:24;7.80;99.90
7002;DHT22;3541;53.230;10.518;2024-02-04T11:59:51;7.80;99.90
7002;DHT22;3541;53.230;10.518;2024-02-04T12:02:20;7.80;99.90
7002;DHT22;3541;53.230;10.518;2024-02-04T12:04:48;7.80;99.90
7002;DHT22;3541;53.230;10.518;2024-02-04T12:07:15;7.80;99.90
7002;DHT22;3541;53.230;10.518;2024-02-04T12:09:41;7.90;99.90
7002;DHT22;3541;53.230;10.518;2024-02-04T12:12:08;7.80;99.90
7002;DHT22;3541;53.230;10.518;2024-02-04T12:14:35;7.90;99.90
7002;DHT22;3541;53.230;10.518;2024-02-04T12:17:07;7.90;99.90
7002;DHT22;3541;53.230;10.518;2024-02-04T12:19:34;7.90;99.90
7002;DHT22;3541;53.230;10.518;2024-02-04T12:22:03;7.90;99.90
7002;DHT22;3541;53.230;10.518;2024-02-04T12:24:35;8.00;99.90
7002;DHT22;3541;53.230;10.518;2024-02-04T12:27:02;8.00;99.90
7002;DHT22;3541;53.230;10.518;2024-02-04T12:29:29;8.00;99.90
7002;DHT22;3541;53.230;10.518;2024-02-04T12:31:59;8.00;99.90
7002;DHT22;3541;53.230;10.518;2024-02-04T12:34:26;8.00;99.90
7002;DHT22;3541;53.230;10.518;2024-02-04T12:36:57;8.00;99.90
7002;DHT22;3541;53.230;10.518;2024-02-04T12:39:26;8.00;99.90
7002;DHT22;3541;53.230;10.518;2024-02-04T12:41:53;8.00;99.90
7002;DHT22;3541;53.230;10.518;2024-02-04T12:44:19;8.00;99.90
7002;DHT22;3541;53.230;10.518;2024-02-04T12:46:50;8.00;99.90
7002;DHT22;3541;53.230;10.518;2024-02-04T12:49:19;8.10;99.90
7002;DHT22;3541;53.230;10.518;2024-02-04T12:51:46;8.10;99.90
7002;DHT22;3541;53.230;10.518;2024-02-04T12:54:12;8.10;99.90
7002;DHT22;3541;53.230;10.518;2024-02-04T12:56:45;8.10;99.90
7002;DHT22;3541;53.230;10.518;2024-02-04T12:59:12;8.10;99.90
7002;DHT22;3541;53.230;10.518;2024-02-04T13:01:52;8.10;99.90
7002;DHT22;3541;53.230;10.518;2024-02-04T13:04:19;8.10;99.90
7002;DHT22;3541;53.230;10.518;2024-02-04T13:06:46;8.10;99.90
7002;DHT22;3541;53.230;10.518;2024-02-04T13:09:14;8.10;99.90
7002;DHT22;3541;53.230;10.518;2024-02-04T13:11:42;8.10;99.90
7002;DHT22;3541;53.230;10.518;2024-02-04T13:14:09;8.10;99.90
7002;DHT22;3541;53.230;10.518;2024-02-04T13:16:36;8.10;99.90
7002;DHT22;3541;53.230;10.518;2024-02-04T13:19:03;8.20;99.90
7002;DHT22;3541;53.230;10.518;2024-02-04T13:21:30;8.10;99.90
7002;DHT22;3541;53.230;10.518;2024-02-04T13:23:57;8.20;99.90
7002;DHT22;3541;53.230;10.518;2024-02-04T13:26:23;8.10;99.90
7002;DHT22;3541;53.230;10.518;2024-02-04T13:28:51;8.20;99.90
7002;DHT22;3541;53.230;10.518;2024-02-04T13:31:18;8.20;99.90
7002;DHT22;3541;53.230;10.518;2024-02-04T13:33:45;8.10;99.90
7002;DHT22;3541;53.230;10.518;2024-02-04T13:36:11;8.20;99.90
7002;DHT22;3541;53.230;10.518;2024-02-04T13:38:38;8.20;99.90
7002;DHT22;3541;53.230;10.518;2024-02-04T13:41:04;8.20;99.90
7002;DHT22;3541;53.230;10.518;2024-02-04T13:43:33;8.20;99.90
7002;DHT22;3541;53.230;10.518;2024-02-04T13:46:01;8.20;99.90
7002;DHT22;3541;53.230;10.518;2024-02-04T13:48:27;8.20;99.90
7002;DHT22;3541;53.230;10.518;2024-02-04T13:50:54;8.20;99.90
7002;DHT22;3541;53.230;10.518;2024-02-04T13:53:21;8.20;99.90
7002;DHT22;3541;53.230;10.518;2024-02-04T13:55:48;8.20;99.90
7002;DHT22;3541;53.230;10.518;2024-02-04T13:58:15;8.20;99.90
7002;DHT22;3541;53.230;10.518;2024-02-04T14:00:43;8.20;99.90
7002;DHT22;3541;53.230;10.518;2024-02-04T14:03:11;8.20;99.90
7002;DHT22;3541;53.230;10.518;2024-02-04T14:05:38;8.20;99.90
7002;DHT22;3541;53.230;10.518;2024-02-04T14:08:06;8.20;99.90
7002;DHT22;3541;53.230;10.518;2024-02-04T14:10:33;8.20;99.90
7002;DHT22;3541;53.230;10.518;2024-02-04T14:12:59;8.30;99.90
7002;DHT22;3541;53.230;10.518;2024-02-04T14:15:26;8.30;99.90
7002;DHT22;3541;53.230;10.518;2024-02-04T14:17:52;8.20;99.90
7002;DHT22;3541;53.230;10.518;2024-02-04T14:20:20;8.20;99.90
7002;DHT22;3541;53.230;10.518;2024-02-04T14:22:47;8.20;99.90
7002;DHT22;3541;53.230;10.518;2024-02-04T14:25:14;8.20;99.90
7002;DHT22;3541;53.230;10.518;2024-02-04T14:27:41;8.30;99.90
7002;DHT22;3541;53.230;10.518;2024-02-04T14:30:09;8.20;99.90
7002;DHT22;3541;53.230;10.518;2024-02-04T14:32:35;8.20;99.90
7002;DHT22;3541;53.230;10.518;2024-02-04T14:35:03;8.30;99.90
7002;DHT22;3541;53.230;10.518;2024-02-04T14:37:31;8.20;99.90
7002;DHT22;3541;53.230;10.518;2024-02-04T14:39:58;8.30;99.90
7002;DHT22;3541;53.230;10.518;2024-02-04T14:42:25;8.30;99.90
7002;DHT22;3541;53.230;10.518;2024-02-04T14:44:52;8.30;99.90
7002;DHT22;3541;53.230;10.518;2024-02-04T14:47:19;8.20;99.90
7002;DHT22;3541;53.230;10.518;2024-02-04T14:49:45;8.30;99.90
7002;DHT22;3541;53.230;10.518;2024-02-04T14:52:12;8.20;99.90
7002;DHT22;3541;53.230;10.518;2024-02-04T14:54:41;8.30;99.90
7002;DHT22;3541;53.230;10.518;2024-02-04T14:57:07;8.20;99.90
7002;DHT22;3541;53.230;10.518;2024-02-04T14:59:34;8.30;99.90
7002;DHT22;3541;53.230;10.518;2024-02-04T15:02:03;8.30;99.90
7002;DHT22;3541;53.230;10.518;2024-02-04T15:04:30;8.30;99.90
7002;DHT22;3541;53.230;10.518;2024-02-04T15:06:58;8.30;99.90
7002;DHT22;3541;53.230;10.518;2024-02-04T15:09:24;8.30;99.90
7002;DHT22;3541;53.230;10.518;2024-02-04T15:11:53;8.20;99.90
7002;DHT22;3541;53.230;10.518;2024-02-04T15:14:20;8.20;99.90
7002;DHT22;3541;53.230;10.518;2024-02-04T15:16:47;8.20;99.90
7002;DHT22;3541;53.230;10.518;2024-02-04T15:19:14;8.20;99.90
7002;DHT22;3541;53.230;10.518;2024-02-04T15:21:42;8.30;99.90
7002;DHT22;3541;53.230;10.518;2024-02-04T15:24:09;8.20;99.90
7002;DHT22;3541;53.230;10.518;2024-02-04T15:26:37;8.20;99.90
7002;DHT22;3541;53.230;10.518;2024-02-04T15:29:06;8.10;99.90
7002;DHT22;3541;53.230;10.518;2024-02-04T15:31:33;8.20;99.90
7002;DHT22;3541;53.230;10.518;2024-02-04T15:34:02;8.20;99.90
7002;DHT22;3541;53.230;10.518;2024-02-04T15:36:29;8.20;99.90
7002;DHT22;3541;53.230;10.518;2024-02-04T15:38:57;8.10;99.90
7002;DHT22;3541;53.230;10.518;2024-02-04T15:41:24;8.10;99.90
7002;DHT22;3541;53.230;10.518;2024-02-04T15:43:50;8.10;99.90
7002;DHT22;3541;53.230;10.518;2024-02-04T15:46:19;8.10;99.90
7002;DHT22;3541;53.230;10.518;2024-02-04T15:48:46;8.00;99.90
7002;DHT22;3541;53.230;10.518;2024-02-04T15:51:15;8.00;99.90
7002;DHT22;3541;53.230;10.518;2024-02-04T15:53:42;7.90;99.90
7002;DHT22;3541;53.230;10.518;2024-02-04T15:56:10;8.00;99.90
7002;DHT22;3541;53.230;10.518;2024-02-04T15:58:38;8.00;99.90
7002;DHT22;3541;53.230;10.518;2024-02-04T16:01:09;8.00;99.90
7002;DHT22;3541;53.230;10.518;2024-02-04T16:03:39;7.90;99.90
7002;DHT22;3541;53.230;10.518;2024-02-04T16:06:07;8.00;99.90
7002;DHT22;3541;53.230;10.518;2024-02-04T16:08:34;7.90;99.90